createdAt,value
2023-06-13T00:01:26.966Z,22.63
2023-06-13T00:06:30.284Z,22.50
2023-06-13T00:11:34.666Z,22.30
2023-06-13T00:16:39.544Z,22.33
2023-06-13T00:21:42.776Z,22.17
2023-06-13T00:26:47.110Z,22.32
2023-06-13T00:31:50.465Z,21.96
2023-06-13T00:36:55.154Z,22.07
2023-06-13T00:42:02.648Z,21.97
2023-06-13T00:47:07.355Z,22.09
2023-06-13T00:52:10.432Z,21.98
2023-06-13T00:57:15.232Z,22.12
2023-06-13T01:02:22.032Z,21.97
2023-06-13T01:07:30.940Z,22.03
2023-06-13T01:12:41.308Z,21.94
2023-06-13T01:17:50.526Z,21.71
2023-06-13T01:22:58.749Z,21.85
2023-06-13T01:28:04.271Z,21.87
2023-06-13T01:33:09.953Z,21.82
2023-06-13T01:38:13.024Z,21.74
2023-06-13T01:43:17.556Z,21.64
2023-06-13T01:48:29.917Z,21.59
2023-06-13T01:53:35.150Z,21.50
2023-06-13T01:58:44.696Z,21.48
2023-06-13T02:03:47.836Z,21.27
2023-06-13T02:08:50.864Z,21.23
2023-06-13T02:13:55.222Z,21.24
2023-06-13T02:19:00.795Z,20.97
2023-06-13T02:24:03.773Z,20.97
2023-06-13T02:29:08.612Z,21.12
2023-06-13T02:34:11.579Z,21.14
2023-06-13T02:39:14.540Z,20.87
2023-06-13T02:44:19.680Z,20.79
2023-06-13T02:49:22.710Z,20.63
2023-06-13T02:54:25.681Z,20.53
2023-06-13T02:59:30.177Z,20.47
2023-06-13T03:04:34.078Z,20.62
2023-06-13T03:09:37.571Z,20.49
2023-06-13T03:14:43.492Z,20.49
2023-06-13T03:19:46.686Z,20.53
2023-06-13T03:24:50.181Z,20.41
2023-06-13T03:29:54.686Z,20.36
2023-06-13T03:34:57.782Z,20.24
2023-06-13T03:40:00.975Z,20.31
2023-06-13T03:45:07.399Z,20.56
2023-06-13T03:50:11.372Z,20.51
2023-06-13T03:55:17.303Z,20.26
2023-06-13T04:00:22.226Z,20.31
2023-06-13T04:05:26.606Z,20.52
2023-06-13T04:10:30.952Z,20.44
2023-06-13T04:15:35.284Z,20.62
2023-06-13T04:20:40.509Z,20.30
2023-06-13T04:25:44.571Z,20.50
2023-06-13T04:30:50.354Z,20.67
2023-06-13T04:35:55.739Z,20.53
2023-06-13T04:40:59.180Z,20.86
2023-06-13T04:46:08.085Z,20.87
2023-06-13T04:51:14.568Z,21.05
2023-06-13T04:56:19.730Z,20.74
2023-06-13T05:01:28.224Z,21.01
2023-06-13T05:06:32.159Z,21.22
2023-06-13T05:11:35.369Z,21.18
2023-06-13T05:16:39.725Z,21.44
2023-06-13T05:21:42.642Z,21.43
2023-06-13T05:26:46.158Z,21.50
2023-06-13T05:31:50.715Z,21.83
2023-06-13T05:36:53.831Z,22.22
2023-06-13T05:41:56.915Z,22.18
2023-06-13T05:47:01.297Z,22.36
2023-06-13T05:52:04.487Z,22.59
2023-06-13T05:57:08.098Z,22.45
2023-06-13T06:02:15.381Z,23.06
2023-06-13T06:07:18.402Z,24.04
2023-06-13T06:12:21.678Z,24.55
2023-06-13T06:17:26.341Z,24.49
2023-06-13T06:22:29.675Z,25.60
2023-06-13T06:27:32.685Z,27.73
2023-06-13T06:32:39.871Z,28.93
2023-06-13T06:37:45.720Z,29.50
2023-06-13T06:42:48.650Z,30.80
2023-06-13T06:47:59.932Z,31.46
2023-06-13T06:53:02.949Z,31.31
2023-06-13T06:58:06.137Z,32.04
2023-06-13T07:03:10.615Z,32.38
2023-06-13T07:08:14.634Z,31.87
2023-06-13T07:13:17.882Z,32.48
2023-06-13T07:18:22.273Z,33.08
2023-06-13T07:23:25.286Z,32.67
2023-06-13T07:28:28.149Z,31.98
2023-06-13T07:33:32.537Z,33.06
2023-06-13T07:38:35.493Z,35.06
2023-06-13T07:43:38.540Z,35.75
2023-06-13T07:48:42.955Z,36.86
2023-06-13T07:53:46.360Z,34.95
2023-06-13T07:58:49.286Z,33.35
2023-06-13T08:03:53.688Z,32.88
2023-06-13T08:08:56.706Z,33.87
2023-06-13T08:19:29.074Z,32.61
2023-06-13T08:24:32.268Z,31.93
2023-06-13T08:29:39.060Z,34.05
2023-06-13T08:34:45.038Z,33.20
2023-06-13T08:39:48.759Z,32.83
2023-06-13T08:44:54.373Z,32.29
2023-06-13T08:50:01.532Z,31.36
2023-06-13T08:55:14.528Z,31.68
2023-06-13T09:00:29.933Z,30.73
2023-06-13T09:05:34.861Z,31.50
2023-06-13T09:10:45.847Z,31.51
2023-06-13T09:15:51.926Z,30.13
2023-06-13T09:20:56.488Z,30.31
2023-06-13T09:26:00.792Z,29.42
2023-06-13T09:31:04.200Z,29.17
2023-06-13T09:36:11.420Z,29.65
2023-06-13T09:41:15.203Z,29.28
2023-06-13T09:46:20.435Z,29.75
2023-06-13T09:51:24.950Z,29.71
2023-06-13T09:56:29.095Z,29.63
2023-06-13T10:01:36.185Z,29.09
2023-06-13T10:06:40.573Z,28.46
2023-06-13T10:11:49.172Z,28.35
2023-06-13T10:17:07.939Z,28.70
2023-06-13T10:22:14.172Z,28.61
2023-06-13T10:27:18.602Z,28.66
2023-06-13T10:32:41.850Z,28.64
2023-06-13T10:38:10.784Z,29.16
2023-06-13T10:43:19.085Z,29.17
2023-06-13T10:48:33.634Z,29.02
2023-06-13T10:53:38.747Z,29.50
2023-06-13T10:58:42.408Z,29.09
2023-06-13T11:03:45.351Z,28.80
2023-06-13T11:09:09.984Z,29.26
2023-06-13T11:14:12.896Z,29.46
2023-06-13T11:19:17.116Z,29.35
2023-06-13T11:24:24.391Z,29.64
2023-06-13T11:29:29.168Z,29.52
2023-06-13T11:34:34.375Z,29.62
2023-06-13T11:39:44.216Z,29.66
2023-06-13T11:44:51.324Z,29.82
2023-06-13T11:49:58.205Z,29.61
2023-06-13T11:55:02.575Z,29.95
2023-06-13T12:00:07.691Z,29.83
2023-06-13T12:05:12.628Z,29.98
2023-06-13T12:10:17.367Z,30.43
2023-06-13T12:15:25.881Z,30.22
2023-06-13T12:20:29.151Z,29.89
2023-06-13T12:25:33.704Z,29.71
2023-06-13T12:30:40.301Z,30.01
2023-06-13T12:35:50.916Z,30.04
2023-06-13T12:40:56.778Z,30.71
2023-06-13T12:46:01.338Z,30.82
2023-06-13T12:51:04.330Z,30.06
2023-06-13T12:56:08.642Z,30.73
2023-06-13T13:01:16.081Z,30.61
2023-06-13T13:06:19.040Z,30.39
2023-06-13T13:11:23.379Z,30.28
2023-06-13T13:16:26.424Z,30.52
2023-06-13T13:21:29.501Z,30.76
2023-06-13T13:26:33.818Z,30.36
2023-06-13T13:31:37.037Z,30.68
2023-06-13T13:36:40.358Z,30.64
2023-06-13T13:41:44.744Z,30.64
2023-06-13T13:47:10.029Z,30.25
2023-06-13T13:52:12.990Z,30.80
2023-06-13T13:57:17.327Z,31.34
2023-06-13T14:02:20.186Z,31.61
2023-06-13T14:07:26.614Z,31.19
2023-06-13T14:12:30.896Z,31.27
2023-06-13T14:17:34.022Z,31.59
2023-06-13T14:22:39.747Z,30.96
2023-06-13T14:27:43.979Z,31.24
2023-06-13T14:32:46.935Z,30.45
2023-06-13T14:37:52.897Z,30.85
2023-06-13T14:42:57.719Z,30.72
2023-06-13T14:48:00.826Z,30.51
2023-06-13T14:53:05.044Z,30.86
2023-06-13T14:58:09.450Z,30.51
2023-06-13T15:03:12.457Z,30.37
2023-06-13T15:08:15.549Z,30.14
2023-06-13T15:13:21.411Z,30.52
2023-06-13T15:18:24.637Z,30.75
2023-06-13T15:23:27.742Z,30.52
2023-06-13T15:28:32.539Z,30.27
2023-06-13T15:33:37.243Z,30.29
2023-06-13T15:38:41.552Z,30.27
2023-06-13T15:43:46.240Z,30.32
2023-06-13T15:48:49.261Z,29.41
2023-06-13T15:53:53.250Z,29.65
2023-06-13T15:58:58.804Z,29.46
2023-06-13T16:04:02.915Z,29.32
2023-06-13T16:09:06.058Z,29.46
2023-06-13T16:14:10.799Z,29.65
2023-06-13T16:19:14.810Z,29.51
2023-06-13T16:24:17.996Z,29.50
2023-06-13T16:29:23.747Z,29.42
2023-06-13T16:34:26.686Z,28.84
2023-06-13T16:39:35.140Z,29.14
2023-06-13T16:44:39.475Z,29.21
2023-06-13T16:49:42.374Z,29.13
2023-06-13T16:54:45.509Z,28.75
2023-06-13T16:59:49.823Z,28.47
2023-06-13T17:04:52.700Z,28.68
2023-06-13T17:09:55.783Z,28.92
2023-06-13T17:15:01.491Z,28.87
2023-06-13T17:20:04.928Z,28.40
2023-06-13T17:25:09.152Z,28.42
2023-06-13T17:30:13.981Z,28.18
2023-06-13T17:35:17.612Z,28.14
2023-06-13T17:40:20.637Z,28.12
2023-06-13T17:45:28.706Z,27.93
2023-06-13T17:50:34.148Z,27.98
2023-06-13T17:55:37.196Z,27.98
2023-06-13T18:00:41.496Z,27.29
2023-06-13T18:05:44.442Z,27.20
2023-06-13T18:10:47.385Z,27.25
2023-06-13T18:15:52.174Z,26.98
2023-06-13T18:20:55.236Z,26.64
2023-06-13T18:25:58.354Z,26.66
2023-06-13T18:31:03.820Z,26.40
2023-06-13T18:36:07.700Z,26.38
2023-06-13T18:41:10.724Z,25.99
2023-06-13T18:46:15.157Z,25.48
2023-06-13T18:51:18.929Z,25.79
2023-06-13T18:56:23.345Z,25.61
2023-06-13T19:01:30.012Z,25.43
2023-06-13T19:06:33.613Z,25.35
2023-06-13T19:11:36.888Z,24.79
2023-06-13T19:16:42.078Z,24.77
2023-06-13T19:21:47.110Z,24.34
2023-06-13T19:26:50.931Z,24.48
2023-06-13T19:31:55.464Z,24.37
2023-06-13T19:36:58.473Z,24.06
2023-06-13T19:42:01.582Z,24.13
2023-06-13T19:47:06.772Z,23.91
2023-06-13T19:52:10.366Z,23.97
2023-06-13T19:57:14.188Z,23.71
2023-06-13T20:02:18.770Z,23.50
2023-06-13T20:07:21.893Z,23.27
2023-06-13T20:12:24.829Z,23.32
2023-06-13T20:17:33.323Z,23.21
2023-06-13T20:22:39.556Z,23.31
2023-06-13T20:27:43.279Z,23.31
2023-06-13T20:32:48.227Z,23.01
2023-06-13T20:37:51.407Z,23.06
2023-06-13T20:42:54.424Z,23.01
2023-06-13T20:47:59.081Z,22.96
2023-06-13T20:53:02.080Z,22.82
2023-06-13T20:58:05.381Z,22.70
2023-06-13T21:03:11.244Z,22.58
2023-06-13T21:08:15.130Z,22.55
2023-06-13T21:13:18.200Z,22.48
2023-06-13T21:23:25.647Z,22.33
2023-06-13T21:28:28.638Z,22.27
2023-06-13T21:33:33.661Z,22.25
2023-06-13T21:38:37.158Z,22.22
2023-06-13T21:43:40.334Z,22.15
2023-06-13T21:48:47.275Z,22.09
2023-06-13T21:53:50.199Z,22.00
2023-06-13T21:58:53.111Z,21.96
2023-06-13T22:03:57.488Z,21.79
2023-06-13T22:09:00.557Z,21.76
2023-06-13T22:14:06.469Z,21.73
2023-06-13T22:19:11.184Z,21.61
2023-06-13T22:24:14.750Z,21.46
2023-06-13T22:29:18.165Z,21.37
2023-06-13T22:34:22.450Z,21.30
2023-06-13T22:39:25.491Z,21.19
2023-06-13T22:44:28.485Z,21.16
2023-06-13T22:49:33.312Z,21.08
2023-06-13T22:54:36.301Z,21.01
2023-06-13T22:59:39.240Z,20.94
2023-06-13T23:04:44.839Z,20.85
2023-06-13T23:09:47.781Z,20.78
2023-06-13T23:14:51.183Z,20.74
2023-06-13T23:19:57.675Z,20.71
2023-06-13T23:25:02.867Z,20.64
2023-06-13T23:30:07.599Z,20.54
2023-06-13T23:35:12.275Z,20.51
2023-06-13T23:40:16.350Z,20.37
2023-06-13T23:45:19.659Z,20.26
2023-06-13T23:50:26.458Z,20.08
2023-06-13T23:55:29.756Z,20.13
